Latest Weather Observations for North Head

IDN60901

Issued at 8:55 pm EST Thursday 28 August 2014 (issued every 10 minutes, with the page automatically refreshed every 10 minutes)

About weather observations | Map of Sydney area stations | Latest observations for Sydney area | Other Formats
Station Details ID: 066197 Name: NORTH HEAD Lat: -33.82 Lon: 151.30 Height: 90.0 m
Data from the previous 72 hours. | See also: Recent months for locations in New South Wales
Date/Time
EST
Tmp

°C
App
Tmp
°C
Dew
Point
°C
Rel
Hum
%
Delta-T

°C
Wind Press
QNH
hPa
Press
MSL
hPa
Rain
since
9 am
mm
Dir
 
Spd
km/h
Gust
km/h
Spd
kts
Gust
kts
28/08:30pm - - - - - S 20 32 11 17 - - -
28/08:00pm - - - - - S 17 30 9 16 - - -
28/07:30pm - - - - - S 20 30 11 16 - - -
28/07:00pm - - - - - SSE 24 33 13 18 - - -
28/06:30pm - - - - - S 24 37 13 20 - - -
28/06:00pm - - - - - S 22 33 12 18 - - -
28/05:30pm - - - - - SSE 24 39 13 21 - - -
28/05:00pm - - - - - SSE 24 35 13 19 - - -
28/04:30pm - - - - - SSE 26 37 14 20 - - -
28/04:00pm - - - - - SSE 26 39 14 21 - - -
28/03:30pm - - - - - SSE 26 43 14 23 - - -
28/03:00pm - - - - - SSE 30 43 16 23 - - -
28/02:30pm - - - - - SSE 28 41 15 22 - - -
28/02:00pm - - - - - SSE 26 39 14 21 - - -
28/01:30pm - - - - - SSE 28 41 15 22 - - -
28/01:00pm - - - - - SSE 30 39 16 21 - - -
28/12:30pm - - - - - SSE 24 35 13 19 - - -
28/12:00pm - - - - - SSE 26 39 14 21 - - -
28/11:30am - - - - - SSE 26 35 14 19 - - -
28/11:00am - - - - - SSE 30 39 16 21 - - -
28/10:30am - - - - - SSE 28 39 15 21 - - -
28/10:00am - - - - - SSE 26 39 14 21 - - -
28/09:30am - - - - - SSE 26 35 14 19 - - -
28/09:00am - - - - - SSE 20 33 11 18 - - -
28/08:30am - - - - - SE 24 43 13 23 - - -
28/08:00am - - - - - SE 24 39 13 21 - - -
28/07:30am - - - - - S 26 43 14 23 - - -
28/07:24am - - - - - S 28 43 15 23 - - -
28/07:00am - - - - - SSE 11 15 6 8 - - -
28/06:30am - - - - - SSE 22 35 12 19 - - -
28/06:00am - - - - - SSE 35 50 19 27 - - -
28/05:48am - - - - - SSE 28 50 15 27 - - -
28/05:30am - - - - - SSW 15 24 8 13 - - -
28/05:00am - - - - - S 28 37 15 20 - - -
28/04:30am - - - - - S 22 35 12 19 - - -
28/04:00am - - - - - S 20 33 11 18 - - -
28/03:30am - - - - - SSE 22 33 12 18 - - -
28/03:00am - - - - - SSE 30 43 16 23 - - -
28/02:30am - - - - - SSE 22 32 12 17 - - -
28/02:02am - - - - - S 28 54 15 29 - - -
28/02:00am - - - - - S 28 39 15 21 - - -
28/01:30am - - - - - S 24 35 13 19 - - -
28/01:00am - - - - - S 24 37 13 20 - - -
28/12:30am - - - - - S 28 44 15 24 - - -
28/12:00am - - - - - S 26 39 14 21 - - -
 
Date/Time
EST
Tmp

°C
App
Tmp
°C
Dew
Point
°C
Rel
Hum
%
Delta-T

°C
Wind Press
QNH
hPa
Press
MSL
hPa
Rain
since
9 am
mm
Dir
 
Spd
km/h
Gust
km/h
Spd
kts
Gust
kts
27/11:30pm - - - - - S 26 37 14 20 - - -
27/11:00pm - - - - - S 30 43 16 23 - - -
27/10:30pm - - - - - S 28 43 15 23 - - -
27/10:00pm - - - - - SSE 32 46 17 25 - - -
27/09:30pm - - - - - S 28 41 15 22 - - -
27/09:15pm - - - - - S 28 48 15 26 - - -
27/09:00pm - - - - - S 26 37 14 20 - - -
27/08:30pm - - - - - S 26 41 14 22 - - -
27/08:00pm - - - - - SSE 30 44 16 24 - - -
27/07:30pm - - - - - SSE 33 44 18 24 - - -
27/07:00pm - - - - - SSE 37 54 20 29 - - -
27/06:30pm - - - - - S 35 48 19 26 - - -
27/06:00pm - - - - - SSE 33 48 18 26 - - -
27/05:30pm - - - - - SSE 33 46 18 25 - - -
27/05:00pm - - - - - SSE 33 48 18 26 - - -
27/04:34pm - - - - - SSE 35 56 19 30 - - -
27/04:30pm - - - - - SSE 35 52 19 28 - - -
27/04:00pm - - - - - SSE 39 52 21 28 - - -
27/03:30pm - - - - - SSE 35 50 19 27 - - -
27/03:00pm - - - - - SSE 35 46 19 25 - - -
27/02:30pm - - - - - SSE 33 46 18 25 - - -
27/02:00pm - - - - - SSE 33 46 18 25 - - -
27/01:30pm - - - - - SSE 32 46 17 25 - - -
27/01:00pm - - - - - SSE 30 39 16 21 - - -
27/12:30pm - - - - - SSE 32 46 17 25 - - -
27/12:00pm - - - - - SSE 28 43 15 23 - - -
27/11:30am - - - - - SSE 33 43 18 23 - - -
27/11:00am - - - - - SSE 33 44 18 24 - - -
27/10:30am - - - - - SSE 32 46 17 25 - - -
27/10:00am - - - - - SSE 32 48 17 26 - - -
27/09:40am - - - - - SSE 32 50 17 27 - - -
27/09:30am - - - - - SSE 33 46 18 25 - - -
27/09:00am - - - - - SSE 30 44 16 24 - - -
27/08:31am - - - - - SSE 28 48 15 26 - - -
27/08:30am - - - - - SSE 26 48 14 26 - - -
27/08:00am - - - - - SSE 30 39 16 21 - - -
27/07:30am - - - - - SSE 26 39 14 21 - - -
27/07:00am - - - - - SSE 28 41 15 22 - - -
27/06:30am - - - - - SSE 26 35 14 19 - - -
27/06:00am - - - - - SSE 26 44 14 24 - - -
27/05:30am - - - - - SSE 20 33 11 18 - - -
27/05:00am - - - - - SE 22 37 12 20 - - -
27/04:30am - - - - - SE 28 41 15 22 - - -
27/04:00am - - - - - ESE 28 41 15 22 - - -
27/03:30am - - - - - ESE 24 39 13 21 - - -
27/03:00am - - - - - SE 26 39 14 21 - - -
27/02:30am - - - - - ESE 28 46 15 25 - - -
27/02:05am - - - - - ESE 28 46 15 25 - - -
27/02:00am - - - - - ESE 32 44 17 24 - - -
27/01:30am - - - - - ESE 28 39 15 21 - - -
27/01:00am - - - - - SE 30 44 16 24 - - -
27/12:30am - - - - - SE 28 39 15 21 - - -
27/12:00am - - - - - E 24 32 13 17 - - -
 
Date/Time
EST
Tmp

°C
App
Tmp
°C
Dew
Point
°C
Rel
Hum
%
Delta-T

°C
Wind Press
QNH
hPa
Press
MSL
hPa
Rain
since
9 am
mm
Dir
 
Spd
km/h
Gust
km/h
Spd
kts
Gust
kts
26/11:30pm - - - - - ESE 33 48 18 26 - - -
26/11:06pm - - - - - ESE 39 59 21 32 - - -
26/11:00pm - - - - - ESE 44 63 24 34 - - -
26/10:46pm - - - - - ESE 30 48 16 26 - - -
26/10:30pm - - - - - ESE 30 44 16 24 - - -
26/10:18pm - - - - - ESE 32 52 17 28 - - -
26/10:00pm - - - - - ESE 41 56 22 30 - - -
26/09:30pm - - - - - ESE 41 57 22 31 - - -
26/09:00pm - - - - - ESE 37 56 20 30 - - -
26/08:30pm - - - - - ESE 33 54 18 29 - - -
26/08:09pm - - - - - ESE 33 52 18 28 - - -
26/08:00pm - - - - - ESE 37 56 20 30 - - -
26/07:44pm - - - - - ESE 33 52 18 28 - - -
26/07:40pm - - - - - ESE 28 43 15 23 - - -
26/07:30pm - - - - - ESE 15 22 8 12 - - -
26/07:00pm - - - - - ESE 22 30 12 16 - - -
26/06:30pm - - - - - ESE 35 50 19 27 - - -
26/06:22pm - - - - - ESE 30 48 16 26 - - -
26/06:00pm - - - - - ESE 32 44 17 24 - - -
26/05:30pm - - - - - ESE 30 52 16 28 - - -
26/05:20pm - - - - - ESE 28 46 15 25 - - -
26/05:19pm - - - - - ESE 28 44 15 24 - - -
26/05:00pm - - - - - S 4 15 2 8 - - -
26/04:30pm - - - - - SSW 9 15 5 8 - - -
26/04:00pm - - - - - WSW 11 15 6 8 - - -
26/03:30pm - - - - - NW 6 7 3 4 - - -
26/03:00pm - - - - - SSE 7 9 4 5 - - -
26/02:30pm - - - - - S 15 24 8 13 - - -
26/02:00pm - - - - - SSW 11 15 6 8 - - -
26/01:30pm - - - - - SW 13 17 7 9 - - -
26/01:00pm - - - - - SW 11 17 6 9 - - -
26/12:30pm - - - - - S 15 26 8 14 - - -
26/12:00pm - - - - - SSW 7 9 4 5 - - -
26/11:30am - - - - - SW 4 7 2 4 - - -
26/11:00am - - - - - W 4 6 2 3 - - -
26/10:30am - - - - - NNW 2 4 1 2 - - -
26/10:00am - - - - - NE 11 17 6 9 - - -
26/09:30am - - - - - NE 7 13 4 7 - - -
26/09:00am - - - - - NE 7 11 4 6 - - -
26/08:30am - - - - - N 7 11 4 6 - - -
26/08:00am - - - - - NE 9 17 5 9 - - -
26/07:30am - - - - - ENE 11 24 6 13 - - -
26/07:00am - - - - - E 13 20 7 11 - - -
26/06:30am - - - - - SW 11 15 6 8 - - -
26/06:00am - - - - - W 11 13 6 7 - - -
26/05:30am - - - - - WSW 11 13 6 7 - - -
26/05:00am - - - - - W 13 17 7 9 - - -
26/04:30am - - - - - W 11 15 6 8 - - -
26/04:00am - - - - - W 11 15 6 8 - - -
26/03:30am - - - - - W 11 13 6 7 - - -
26/03:00am - - - - - W 11 13 6 7 - - -
26/02:30am - - - - - W 9 11 5 6 - - -
26/02:00am - - - - - WSW 4 7 2 4 - - -
26/01:30am - - - - - SW 7 11 4 6 - - -
26/01:00am - - - - - SW 7 11 4 6 - - -
26/12:30am - - - - - SSW 7 9 4 5 - - -
26/12:00am - - - - - WSW 7 9 4 5 - - -
 
Date/Time
EST
Tmp

°C
App
Tmp
°C
Dew
Point
°C
Rel
Hum
%
Delta-T

°C
Wind Press
QNH
hPa
Press
MSL
hPa
Rain
since
9 am
mm
Dir
 
Spd
km/h
Gust
km/h
Spd
kts
Gust
kts
25/11:30pm - - - - - WSW 7 9 4 5 - - -
25/11:00pm - - - - - WSW 7 9 4 5 - - -
25/10:30pm - - - - - SW 4 7 2 4 - - -
25/10:00pm - - - - - SSW 6 7 3 4 - - -
25/09:30pm - - - - - SSW 7 11 4 6 - - -
25/09:00pm - - - - - ESE 15 22 8 12 - - -

Latest Capital City Observations: Canberra | Sydney | Melbourne | Brisbane | Adelaide | Perth | Hobart | Darwin

Other Formats:

Comma delimited format used in spreadsheet applications
http://www.bom.gov.au/fwo/IDN60901/IDN60901.95768.axf

JavaScript Object Notation format (JSON) in row-major order
http://www.bom.gov.au/fwo/IDN60901/IDN60901.95768.json